sensor_id;sensor_type;location;lat;lon;timestamp;pressure;altitude;pressure_sealevel;temperature;humidity
65175;BME280;51761;42.126;24.752;2022-11-06T00:00:41;99318.41;;;12.55;77.32
65175;BME280;51761;42.126;24.752;2022-11-06T00:03:07;99318.16;;;12.50;77.75
65175;BME280;51761;42.126;24.752;2022-11-06T00:05:33;99319.53;;;12.57;77.37
65175;BME280;51761;42.126;24.752;2022-11-06T00:08:32;99283.75;;;12.37;77.67
65175;BME280;51761;42.126;24.752;2022-11-06T00:10:58;99279.03;;;12.34;77.88
65175;BME280;51761;42.126;24.752;2022-11-06T00:13:24;99304.13;;;12.65;77.24
65175;BME280;51761;42.126;24.752;2022-11-06T00:15:49;99303.31;;;12.65;77.44
65175;BME280;51761;42.126;24.752;2022-11-06T00:18:15;99303.75;;;12.51;77.51
65175;BME280;51761;42.126;24.752;2022-11-06T00:20:40;99308.75;;;12.44;77.86
65175;BME280;51761;42.126;24.752;2022-11-06T00:23:06;99309.84;;;12.34;78.46
65175;BME280;51761;42.126;24.752;2022-11-06T00:25:31;99304.06;;;12.25;78.75
65175;BME280;51761;42.126;24.752;2022-11-06T00:27:57;99294.25;;;12.33;78.51
65175;BME280;51761;42.126;24.752;2022-11-06T00:30:23;99296.06;;;12.39;78.19
65175;BME280;51761;42.126;24.752;2022-11-06T00:32:49;99293.84;;;12.47;77.84
65175;BME280;51761;42.126;24.752;2022-11-06T00:35:14;99265.16;;;12.43;77.21
65175;BME280;51761;42.126;24.752;2022-11-06T00:37:40;99297.34;;;12.51;77.61
65175;BME280;51761;42.126;24.752;2022-11-06T00:40:06;99295.00;;;12.49;77.61
65175;BME280;51761;42.126;24.752;2022-11-06T00:42:31;99255.25;;;12.26;77.91
65175;BME280;51761;42.126;24.752;2022-11-06T00:44:57;99296.94;;;12.36;78.30
65175;BME280;51761;42.126;24.752;2022-11-06T00:47:22;99298.13;;;12.23;79.14
65175;BME280;51761;42.126;24.752;2022-11-06T00:49:48;99286.28;;;12.31;78.43
65175;BME280;51761;42.126;24.752;2022-11-06T00:52:13;99300.16;;;12.22;78.70
65175;BME280;51761;42.126;24.752;2022-11-06T00:54:39;99302.63;;;12.20;77.70
65175;BME280;51761;42.126;24.752;2022-11-06T00:57:05;99293.28;;;11.95;78.10
65175;BME280;51761;42.126;24.752;2022-11-06T00:59:31;99285.00;;;11.75;79.08
65175;BME280;51761;42.126;24.752;2022-11-06T01:01:57;99205.31;;;11.03;79.03
65175;BME280;51761;42.126;24.752;2022-11-06T01:04:23;99305.75;;;11.78;78.79
65175;BME280;51761;42.126;24.752;2022-11-06T01:06:51;99312.81;;;11.82;78.54
65175;BME280;51761;42.126;24.752;2022-11-06T01:09:21;99283.66;;;11.48;79.03
65175;BME280;51761;42.126;24.752;2022-11-06T01:11:49;99317.81;;;11.59;79.54
65175;BME280;51761;42.126;24.752;2022-11-06T01:14:16;99314.66;;;11.57;79.71
65175;BME280;51761;42.126;24.752;2022-11-06T01:16:42;99312.22;;;11.59;79.81
65175;BME280;51761;42.126;24.752;2022-11-06T01:19:10;99303.72;;;11.62;79.63
65175;BME280;51761;42.126;24.752;2022-11-06T01:21:38;99319.31;;;11.63;79.80
65175;BME280;51761;42.126;24.752;2022-11-06T01:24:08;99305.88;;;11.55;79.61
65175;BME280;51761;42.126;24.752;2022-11-06T01:26:35;99291.47;;;11.40;79.93
65175;BME280;51761;42.126;24.752;2022-11-06T01:29:01;99293.91;;;11.38;79.62
65175;BME280;51761;42.126;24.752;2022-11-06T01:31:28;99317.69;;;11.62;79.82
65175;BME280;51761;42.126;24.752;2022-11-06T01:33:55;99309.22;;;11.66;79.79
65175;BME280;51761;42.126;24.752;2022-11-06T01:36:22;99312.22;;;11.59;80.14
65175;BME280;51761;42.126;24.752;2022-11-06T01:38:50;99311.75;;;11.60;80.30
65175;BME280;51761;42.126;24.752;2022-11-06T01:41:18;99274.31;;;11.54;79.93
65175;BME280;51761;42.126;24.752;2022-11-06T01:46:13;99297.97;;;11.69;79.84
65175;BME280;51761;42.126;24.752;2022-11-06T01:48:40;99287.97;;;11.52;79.84
65175;BME280;51761;42.126;24.752;2022-11-06T01:51:08;99302.16;;;11.61;80.04
65175;BME280;51761;42.126;24.752;2022-11-06T01:53:34;99272.41;;;11.51;80.10
65175;BME280;51761;42.126;24.752;2022-11-06T01:56:02;99321.31;;;11.79;80.06
65175;BME280;51761;42.126;24.752;2022-11-06T01:58:30;99302.34;;;11.70;80.20
65175;BME280;51761;42.126;24.752;2022-11-06T02:00:56;99314.22;;;11.74;80.35
65175;BME280;51761;42.126;24.752;2022-11-06T02:03:22;99318.66;;;11.72;79.98
65175;BME280;51761;42.126;24.752;2022-11-06T02:05:48;99318.66;;;11.72;79.56
65175;BME280;51761;42.126;24.752;2022-11-06T02:08:18;99286.56;;;11.44;80.45
65175;BME280;51761;42.126;24.752;2022-11-06T02:10:45;99284.81;;;11.50;79.75
65175;BME280;51761;42.126;24.752;2022-11-06T02:27:36;99306.69;;;11.39;80.60
65175;BME280;51761;42.126;24.752;2022-11-06T02:32:52;99273.03;;;11.27;80.59
65175;BME280;51761;42.126;24.752;2022-11-06T02:35:37;99306.91;;;11.45;80.53
65175;BME280;51761;42.126;24.752;2022-11-06T02:38:15;99300.03;;;11.49;80.66
65175;BME280;51761;42.126;24.752;2022-11-06T02:40:46;99320.19;;;11.41;80.74
65175;BME280;51761;42.126;24.752;2022-11-06T02:43:14;99303.78;;;11.43;81.31
65175;BME280;51761;42.126;24.752;2022-11-06T02:45:51;99308.00;;;11.51;81.00
65175;BME280;51761;42.126;24.752;2022-11-06T02:48:20;99301.19;;;11.52;81.04
65175;BME280;51761;42.126;24.752;2022-11-06T02:50:49;99318.44;;;11.47;81.02
65175;BME280;51761;42.126;24.752;2022-11-06T02:53:17;99310.34;;;11.52;81.09
65175;BME280;51761;42.126;24.752;2022-11-06T02:55:47;99311.22;;;11.49;80.84
65175;BME280;51761;42.126;24.752;2022-11-06T02:58:27;99290.59;;;11.43;81.09
65175;BME280;51761;42.126;24.752;2022-11-06T03:00:59;99310.34;;;11.52;81.35
65175;BME280;51761;42.126;24.752;2022-11-06T03:03:29;99309.13;;;11.53;80.98
65175;BME280;51761;42.126;24.752;2022-11-06T03:06:30;99323.56;;;11.52;81.50
65175;BME280;51761;42.126;24.752;2022-11-06T03:09:08;99280.59;;;11.26;81.39
65175;BME280;51761;42.126;24.752;2022-11-06T03:11:35;99314.56;;;11.60;81.31
65175;BME280;51761;42.126;24.752;2022-11-06T03:22:08;99317.00;;;11.74;81.56
65175;BME280;51761;42.126;24.752;2022-11-06T03:25:25;99316.50;;;11.63;81.90
65175;BME280;51761;42.126;24.752;2022-11-06T03:28:07;99318.31;;;11.54;82.60
65175;BME280;51761;42.126;24.752;2022-11-06T03:30:41;99312.16;;;11.43;82.72
65175;BME280;51761;42.126;24.752;2022-11-06T03:33:21;99311.88;;;11.57;82.13
65175;BME280;51761;42.126;24.752;2022-11-06T03:35:53;99321.81;;;11.58;81.80
65175;BME280;51761;42.126;24.752;2022-11-06T03:38:27;99324.16;;;11.59;82.20
65175;BME280;51761;42.126;24.752;2022-11-06T03:40:59;99293.22;;;11.34;82.66
65175;BME280;51761;42.126;24.752;2022-11-06T03:43:30;99326.75;;;11.50;82.55
65175;BME280;51761;42.126;24.752;2022-11-06T03:46:01;99313.47;;;11.54;82.50
65175;BME280;51761;42.126;24.752;2022-11-06T03:48:40;99301.19;;;11.52;82.40
65175;BME280;51761;42.126;24.752;2022-11-06T03:51:19;99314.28;;;11.55;82.18
65175;BME280;51761;42.126;24.752;2022-11-06T03:53:49;99311.22;;;11.49;82.70
65175;BME280;51761;42.126;24.752;2022-11-06T03:56:37;99285.69;;;11.47;82.28
65175;BME280;51761;42.126;24.752;2022-11-06T03:59:05;99320.13;;;11.44;82.31
65175;BME280;51761;42.126;24.752;2022-11-06T04:01:34;99314.53;;;11.44;82.65
65175;BME280;51761;42.126;24.752;2022-11-06T04:04:28;99313.47;;;11.54;82.19
65175;BME280;51761;42.126;24.752;2022-11-06T04:07:00;99306.91;;;11.29;81.58
65175;BME280;51761;42.126;24.752;2022-11-06T04:09:30;99297.72;;;11.28;81.94
65175;BME280;51761;42.126;24.752;2022-11-06T04:12:19;99304.19;;;11.25;81.50
65175;BME280;51761;42.126;24.752;2022-11-06T04:15:05;99326.00;;;11.50;81.76
65175;BME280;51761;42.126;24.752;2022-11-06T04:17:33;99276.25;;;11.09;81.97
65175;BME280;51761;42.126;24.752;2022-11-06T04:20:05;99326.78;;;11.34;82.53
65175;BME280;51761;42.126;24.752;2022-11-06T04:23:16;99321.53;;;11.52;82.15
65175;BME280;51761;42.126;24.752;2022-11-06T04:26:00;99297.84;;;11.25;82.53
65175;BME280;51761;42.126;24.752;2022-11-06T04:28:57;99315.06;;;11.39;82.66
65175;BME280;51761;42.126;24.752;2022-11-06T04:34:25;99335.16;;;11.50;82.86
65175;BME280;51761;42.126;24.752;2022-11-06T04:40:02;99327.28;;;11.45;83.49
65175;BME280;51761;42.126;24.752;2022-11-06T04:45:01;99286.56;;;11.28;83.20
65175;BME280;51761;42.126;24.752;2022-11-06T04:47:29;99334.28;;;11.53;83.13
65175;BME280;51761;42.126;24.752;2022-11-06T04:49:57;99314.47;;;11.64;82.64
65175;BME280;51761;42.126;24.752;2022-11-06T04:52:26;99324.03;;;11.66;82.68
65175;BME280;51761;42.126;24.752;2022-11-06T04:54:52;99319.94;;;11.51;82.65
65175;BME280;51761;42.126;24.752;2022-11-06T04:57:20;99341.56;;;11.67;82.55
65175;BME280;51761;42.126;24.752;2022-11-06T04:59:46;99342.88;;;11.62;82.71
65175;BME280;51761;42.126;24.752;2022-11-06T05:02:11;99337.81;;;11.73;82.54
65175;BME280;51761;42.126;24.752;2022-11-06T05:04:37;99328.47;;;11.80;82.42
65175;BME280;51761;42.126;24.752;2022-11-06T05:07:02;99328.47;;;11.80;82.18
65175;BME280;51761;42.126;24.752;2022-11-06T05:09:28;99328.13;;;11.78;82.25
65175;BME280;51761;42.126;24.752;2022-11-06T05:11:53;99334.06;;;11.80;82.05
65175;BME280;51761;42.126;24.752;2022-11-06T05:14:19;99344.81;;;11.81;82.00
65175;BME280;51761;42.126;24.752;2022-11-06T05:16:44;99346.88;;;11.61;82.84
65175;BME280;51761;42.126;24.752;2022-11-06T05:19:10;99340.28;;;11.71;82.71
65175;BME280;51761;42.126;24.752;2022-11-06T05:21:35;99324.47;;;11.29;83.67
65175;BME280;51761;42.126;24.752;2022-11-06T05:24:19;99343.69;;;11.63;83.44
65175;BME280;51761;42.126;24.752;2022-11-06T05:26:45;99325.69;;;11.28;84.05
65175;BME280;51761;42.126;24.752;2022-11-06T05:29:11;99331.84;;;11.39;84.01
65175;BME280;51761;42.126;24.752;2022-11-06T05:31:37;99317.47;;;11.21;84.31
65175;BME280;51761;42.126;24.752;2022-11-06T05:34:03;99357.59;;;11.66;83.44
65175;BME280;51761;42.126;24.752;2022-11-06T05:36:29;99338.81;;;11.47;83.54
65175;BME280;51761;42.126;24.752;2022-11-06T05:38:54;99363.72;;;11.93;82.40
65175;BME280;51761;42.126;24.752;2022-11-06T05:41:20;99337.66;;;11.64;82.69
65175;BME280;51761;42.126;24.752;2022-11-06T05:43:45;99370.16;;;11.90;82.43
65175;BME280;51761;42.126;24.752;2022-11-06T05:46:11;99371.13;;;11.84;82.57
65175;BME280;51761;42.126;24.752;2022-11-06T05:48:36;99374.16;;;11.89;82.15
65175;BME280;51761;42.126;24.752;2022-11-06T05:51:06;99350.13;;;11.60;83.00
65175;BME280;51761;42.126;24.752;2022-11-06T05:53:34;99349.19;;;11.66;82.76
65175;BME280;51761;42.126;24.752;2022-11-06T05:56:00;99400.25;;;12.02;82.52
65175;BME280;51761;42.126;24.752;2022-11-06T05:58:26;99393.59;;;11.80;82.89
65175;BME280;51761;42.126;24.752;2022-11-06T06:00:53;99385.03;;;11.87;82.21
65175;BME280;51761;42.126;24.752;2022-11-06T06:03:19;99402.34;;;11.82;82.65
65175;BME280;51761;42.126;24.752;2022-11-06T06:05:46;99394.28;;;11.84;81.52
65175;BME280;51761;42.126;24.752;2022-11-06T06:08:12;99411.00;;;11.88;82.52
65175;BME280;51761;42.126;24.752;2022-11-06T06:10:45;99417.75;;;12.06;81.15
65175;BME280;51761;42.126;24.752;2022-11-06T06:13:11;99434.97;;;12.05;79.51
65175;BME280;51761;42.126;24.752;2022-11-06T06:15:37;99430.75;;;11.97;79.20
65175;BME280;51761;42.126;24.752;2022-11-06T06:18:04;99418.94;;;11.89;79.66
65175;BME280;51761;42.126;24.752;2022-11-06T06:20:30;99425.97;;;11.97;79.45
65175;BME280;51761;42.126;24.752;2022-11-06T06:22:57;99431.56;;;11.97;79.41
65175;BME280;51761;42.126;24.752;2022-11-06T06:25:23;99408.03;;;11.79;79.73
65175;BME280;51761;42.126;24.752;2022-11-06T06:27:50;99408.31;;;12.00;79.19
65175;BME280;51761;42.126;24.752;2022-11-06T06:30:16;99415.28;;;12.08;79.09
65175;BME280;51761;42.126;24.752;2022-11-06T06:32:41;99411.59;;;12.11;78.75
65175;BME280;51761;42.126;24.752;2022-11-06T06:35:07;99431.59;;;12.57;77.66
65175;BME280;51761;42.126;24.752;2022-11-06T06:37:33;99446.00;;;12.72;77.63
65175;BME280;51761;42.126;24.752;2022-11-06T06:39:58;99445.84;;;12.63;77.97
65175;BME280;51761;42.126;24.752;2022-11-06T06:42:24;99453.88;;;12.93;77.05
65175;BME280;51761;42.126;24.752;2022-11-06T06:44:49;99460.31;;;12.90;77.16
65175;BME280;51761;42.126;24.752;2022-11-06T06:47:14;99454.22;;;12.95;76.24
65175;BME280;51761;42.126;24.752;2022-11-06T06:49:43;99453.56;;;12.87;76.78
65175;BME280;51761;42.126;24.752;2022-11-06T06:52:09;99474.34;;;13.06;80.09
65175;BME280;51761;42.126;24.752;2022-11-06T06:54:34;99455.50;;;14.34;100.00
65175;BME280;51761;42.126;24.752;2022-11-06T06:57:00;99428.38;;;14.87;100.00
65175;BME280;51761;42.126;24.752;2022-11-06T06:59:29;99435.34;;;15.38;100.00
65175;BME280;51761;42.126;24.752;2022-11-06T07:01:54;99460.38;;;15.96;95.96
65175;BME280;51761;42.126;24.752;2022-11-06T07:04:20;99473.25;;;16.06;72.33
65175;BME280;51761;42.126;24.752;2022-11-06T07:06:46;99468.97;;;15.63;68.95
65175;BME280;51761;42.126;24.752;2022-11-06T07:09:12;99477.13;;;15.27;75.83
65175;BME280;51761;42.126;24.752;2022-11-06T07:11:37;99476.59;;;15.19;72.48
65175;BME280;51761;42.126;24.752;2022-11-06T07:14:03;99486.13;;;15.00;71.39
65175;BME280;51761;42.126;24.752;2022-11-06T07:16:28;99477.50;;;15.29;76.61
65175;BME280;51761;42.126;24.752;2022-11-06T07:18:54;99475.63;;;15.56;76.79
65175;BME280;51761;42.126;24.752;2022-11-06T07:21:20;99459.31;;;15.73;74.92
65175;BME280;51761;42.126;24.752;2022-11-06T07:23:46;99479.03;;;16.03;72.40
65175;BME280;51761;42.126;24.752;2022-11-06T07:26:11;99484.56;;;16.15;76.40
65175;BME280;51761;42.126;24.752;2022-11-06T07:28:37;99474.78;;;15.98;70.22
65175;BME280;51761;42.126;24.752;2022-11-06T07:31:05;99484.25;;;16.22;75.83
65175;BME280;51761;42.126;24.752;2022-11-06T07:33:31;99459.63;;;16.53;78.13
65175;BME280;51761;42.126;24.752;2022-11-06T07:36:26;99489.13;;;16.79;69.14
65175;BME280;51761;42.126;24.752;2022-11-06T07:38:52;99483.34;;;16.83;68.34
65175;BME280;51761;42.126;24.752;2022-11-06T07:41:17;99477.41;;;17.08;75.17
65175;BME280;51761;42.126;24.752;2022-11-06T07:43:43;99470.81;;;17.29;67.56
65175;BME280;51761;42.126;24.752;2022-11-06T07:46:10;99478.38;;;17.41;70.69
65175;BME280;51761;42.126;24.752;2022-11-06T07:48:36;99470.53;;;17.45;68.08
65175;BME280;51761;42.126;24.752;2022-11-06T07:51:04;99483.78;;;17.80;68.99
65175;BME280;51761;42.126;24.752;2022-11-06T07:53:30;99467.34;;;17.69;64.44
65175;BME280;51761;42.126;24.752;2022-11-06T07:55:56;99498.94;;;18.00;67.66
65175;BME280;51761;42.126;24.752;2022-11-06T07:58:23;99498.59;;;18.16;64.62
65175;BME280;51761;42.126;24.752;2022-11-06T08:00:53;99503.53;;;18.39;67.03
65175;BME280;51761;42.126;24.752;2022-11-06T08:03:19;99502.53;;;18.51;65.10
65175;BME280;51761;42.126;24.752;2022-11-06T08:05:45;99480.66;;;18.28;62.16
65175;BME280;51761;42.126;24.752;2022-11-06T08:08:10;99509.69;;;18.29;62.56
65175;BME280;51761;42.126;24.752;2022-11-06T08:10:36;99522.28;;;18.19;63.18
65175;BME280;51761;42.126;24.752;2022-11-06T08:13:05;99502.47;;;17.77;62.94
65175;BME280;51761;42.126;24.752;2022-11-06T08:15:31;99524.44;;;17.73;63.54
65175;BME280;51761;42.126;24.752;2022-11-06T08:17:58;99521.19;;;17.57;64.62
65175;BME280;51761;42.126;24.752;2022-11-06T08:20:24;99510.34;;;17.11;66.95
65175;BME280;51761;42.126;24.752;2022-11-06T08:22:49;99535.56;;;16.87;66.59
65175;BME280;51761;42.126;24.752;2022-11-06T08:25:15;99520.72;;;16.47;67.97
65175;BME280;51761;42.126;24.752;2022-11-06T08:27:40;99545.84;;;16.33;69.20
65175;BME280;51761;42.126;24.752;2022-11-06T08:30:07;99543.00;;;16.24;69.39
65175;BME280;51761;42.126;24.752;2022-11-06T08:32:32;99488.22;;;15.64;70.38
65175;BME280;51761;42.126;24.752;2022-11-06T08:34:58;99513.34;;;15.59;70.75
65175;BME280;51761;42.126;24.752;2022-11-06T08:37:23;99576.19;;;15.56;72.06
65175;BME280;51761;42.126;24.752;2022-11-06T08:39:49;99577.63;;;15.39;72.78
65175;BME280;51761;42.126;24.752;2022-11-06T08:42:14;99579.66;;;15.38;73.37
65175;BME280;51761;42.126;24.752;2022-11-06T08:44:40;99573.81;;;15.20;73.37
65175;BME280;51761;42.126;24.752;2022-11-06T08:47:07;99578.47;;;15.14;73.56
65175;BME280;51761;42.126;24.752;2022-11-06T08:49:33;99565.31;;;15.11;73.95
65175;BME280;51761;42.126;24.752;2022-11-06T08:51:58;99529.16;;;14.88;74.16
65175;BME280;51761;42.126;24.752;2022-11-06T08:54:24;99514.25;;;15.00;73.82
65175;BME280;51761;42.126;24.752;2022-11-06T08:56:49;99560.66;;;15.17;75.70
65175;BME280;51761;42.126;24.752;2022-11-06T08:59:15;99528.31;;;15.00;76.28
65175;BME280;51761;42.126;24.752;2022-11-06T09:01:40;99515.69;;;14.71;80.99
65175;BME280;51761;42.126;24.752;2022-11-06T09:04:06;99558.41;;;14.91;83.21
65175;BME280;51761;42.126;24.752;2022-11-06T09:06:32;99551.66;;;14.88;82.76
65175;BME280;51761;42.126;24.752;2022-11-06T09:08:58;99565.03;;;14.84;86.21
65175;BME280;51761;42.126;24.752;2022-11-06T09:11:23;99562.94;;;14.63;87.36
65175;BME280;51761;42.126;24.752;2022-11-06T09:13:49;99565.97;;;14.69;89.05
65175;BME280;51761;42.126;24.752;2022-11-06T09:16:15;99564.16;;;14.75;89.53
65175;BME280;51761;42.126;24.752;2022-11-06T09:18:40;99581.50;;;14.61;89.04
65175;BME280;51761;42.126;24.752;2022-11-06T09:21:06;99558.13;;;14.27;90.72
65175;BME280;51761;42.126;24.752;2022-11-06T09:23:31;99580.69;;;14.35;90.68
65175;BME280;51761;42.126;24.752;2022-11-06T09:25:57;99557.44;;;14.23;89.45
65175;BME280;51761;42.126;24.752;2022-11-06T09:28:22;99527.41;;;14.07;91.10
65175;BME280;51761;42.126;24.752;2022-11-06T09:30:48;99513.81;;;14.06;92.15
65175;BME280;51761;42.126;24.752;2022-11-06T09:33:14;99486.63;;;14.03;93.04
65175;BME280;51761;42.126;24.752;2022-11-06T09:35:39;99520.09;;;13.97;94.18
65175;BME280;51761;42.126;24.752;2022-11-06T09:38:07;99546.28;;;14.07;93.95
65175;BME280;51761;42.126;24.752;2022-11-06T09:40:37;99553.28;;;14.27;90.45
65175;BME280;51761;42.126;24.752;2022-11-06T09:45:49;99504.84;;;14.23;89.63
65175;BME280;51761;42.126;24.752;2022-11-06T09:48:17;99541.59;;;14.41;90.43
65175;BME280;51761;42.126;24.752;2022-11-06T09:51:00;99537.22;;;14.27;90.08
65175;BME280;51761;42.126;24.752;2022-11-06T09:53:42;99511.03;;;14.18;89.83
65175;BME280;51761;42.126;24.752;2022-11-06T09:56:11;99555.19;;;14.42;89.68
65175;BME280;51761;42.126;24.752;2022-11-06T09:58:40;99561.59;;;14.43;89.46
65175;BME280;51761;42.126;24.752;2022-11-06T10:01:21;99557.13;;;14.33;88.92
65175;BME280;51761;42.126;24.752;2022-11-06T10:03:56;99533.59;;;14.27;90.01
65175;BME280;51761;42.126;24.752;2022-11-06T10:06:23;99543.75;;;14.25;89.17
65175;BME280;51761;42.126;24.752;2022-11-06T10:08:51;99538.13;;;14.25;89.62
65175;BME280;51761;42.126;24.752;2022-11-06T10:16:51;99559.22;;;14.66;88.71
65175;BME280;51761;42.126;24.752;2022-11-06T10:19:37;99557.31;;;14.63;89.84
65175;BME280;51761;42.126;24.752;2022-11-06T10:24:46;99521.00;;;14.56;89.33
65175;BME280;51761;42.126;24.752;2022-11-06T10:27:17;99500.09;;;14.57;88.57
65175;BME280;51761;42.126;24.752;2022-11-06T10:30:02;99537.66;;;14.97;88.19
65175;BME280;51761;42.126;24.752;2022-11-06T10:35:53;99542.22;;;15.16;87.50
65175;BME280;51761;42.126;24.752;2022-11-06T10:38:27;99548.88;;;15.10;86.27
65175;BME280;51761;42.126;24.752;2022-11-06T10:40:54;99524.69;;;15.12;86.01
65175;BME280;51761;42.126;24.752;2022-11-06T10:43:44;99505.16;;;14.96;86.95
65175;BME280;51761;42.126;24.752;2022-11-06T10:48:48;99547.38;;;15.30;86.49
65175;BME280;51761;42.126;24.752;2022-11-06T10:54:20;99520.56;;;15.04;87.36
65175;BME280;51761;42.126;24.752;2022-11-06T10:59:54;99511.16;;;15.32;86.05
65175;BME280;51761;42.126;24.752;2022-11-06T11:02:35;99534.44;;;15.54;86.43
65175;BME280;51761;42.126;24.752;2022-11-06T11:05:13;99492.41;;;15.38;86.13
65175;BME280;51761;42.126;24.752;2022-11-06T11:07:39;99520.03;;;15.52;86.67
65175;BME280;51761;42.126;24.752;2022-11-06T11:10:26;99522.44;;;15.63;86.38
65175;BME280;51761;42.126;24.752;2022-11-06T11:12:57;99494.91;;;15.58;85.60
65175;BME280;51761;42.126;24.752;2022-11-06T11:15:26;99526.16;;;16.02;84.85
65175;BME280;51761;42.126;24.752;2022-11-06T11:20:34;99508.88;;;16.31;82.07
65175;BME280;51761;42.126;24.752;2022-11-06T11:23:23;99518.09;;;16.62;80.94
65175;BME280;51761;42.126;24.752;2022-11-06T11:25:54;99515.09;;;16.56;79.88
65175;BME280;51761;42.126;24.752;2022-11-06T11:28:33;99504.66;;;16.84;79.42
65175;BME280;51761;42.126;24.752;2022-11-06T11:31:11;99507.50;;;16.93;80.04
65175;BME280;51761;42.126;24.752;2022-11-06T11:33:39;99479.28;;;16.93;80.33
65175;BME280;51761;42.126;24.752;2022-11-06T11:36:06;99474.72;;;16.86;77.86
65175;BME280;51761;42.126;24.752;2022-11-06T11:38:38;99471.75;;;16.99;76.08
65175;BME280;51761;42.126;24.752;2022-11-06T11:41:21;99511.88;;;17.30;77.16
65175;BME280;51761;42.126;24.752;2022-11-06T11:44:08;99457.66;;;16.99;74.63
65175;BME280;51761;42.126;24.752;2022-11-06T11:46:52;99479.28;;;17.20;75.77
65175;BME280;51761;42.126;24.752;2022-11-06T11:49:30;99514.09;;;17.17;75.79
65175;BME280;51761;42.126;24.752;2022-11-06T11:52:11;99512.38;;;17.19;76.23
65175;BME280;51761;42.126;24.752;2022-11-06T11:54:38;99491.69;;;16.95;76.74
65175;BME280;51761;42.126;24.752;2022-11-06T11:57:07;99508.13;;;16.97;75.72
65175;BME280;51761;42.126;24.752;2022-11-06T11:59:45;99513.75;;;16.97;77.10
65175;BME280;51761;42.126;24.752;2022-11-06T12:02:30;99505.00;;;16.95;76.57
65175;BME280;51761;42.126;24.752;2022-11-06T12:05:04;99509.50;;;16.83;77.82
65175;BME280;51761;42.126;24.752;2022-11-06T12:07:40;99516.25;;;16.86;78.43
65175;BME280;51761;42.126;24.752;2022-11-06T12:10:25;99516.25;;;16.86;76.81
65175;BME280;51761;42.126;24.752;2022-11-06T12:12:52;99523.47;;;16.87;76.55
65175;BME280;51761;42.126;24.752;2022-11-06T12:18:15;99482.19;;;16.53;77.27
65175;BME280;51761;42.126;24.752;2022-11-06T12:26:25;99521.59;;;16.75;79.59
65175;BME280;51761;42.126;24.752;2022-11-06T12:29:01;99440.00;;;16.32;78.39
65175;BME280;51761;42.126;24.752;2022-11-06T12:34:42;99495.28;;;16.87;78.50
65175;BME280;51761;42.126;24.752;2022-11-06T12:39:48;99494.19;;;16.93;79.48
65175;BME280;51761;42.126;24.752;2022-11-06T12:42:18;99501.22;;;16.89;78.32
65175;BME280;51761;42.126;24.752;2022-11-06T12:44:46;99497.00;;;16.93;77.47
65175;BME280;51761;42.126;24.752;2022-11-06T12:50:03;99510.63;;;16.86;77.59
65175;BME280;51761;42.126;24.752;2022-11-06T12:55:34;99499.03;;;16.84;78.37
65175;BME280;51761;42.126;24.752;2022-11-06T13:06:13;99490.84;;;16.59;78.04
65175;BME280;51761;42.126;24.752;2022-11-06T13:08:46;99499.28;;;16.50;78.50
65175;BME280;51761;42.126;24.752;2022-11-06T13:16:59;99506.00;;;16.52;78.80
65175;BME280;51761;42.126;24.752;2022-11-06T13:22:30;99504.41;;;16.42;80.01
65175;BME280;51761;42.126;24.752;2022-11-06T13:25:25;99506.69;;;16.65;79.11
65175;BME280;51761;42.126;24.752;2022-11-06T13:28:18;99482.38;;;16.59;78.76
65175;BME280;51761;42.126;24.752;2022-11-06T13:30:47;99502.66;;;16.93;78.21
65175;BME280;51761;42.126;24.752;2022-11-06T13:35:48;99492.00;;;17.24;77.44
65175;BME280;51761;42.126;24.752;2022-11-06T13:38:23;99494.81;;;17.42;76.12
65175;BME280;51761;42.126;24.752;2022-11-06T13:40:53;99498.75;;;17.62;75.50
65175;BME280;51761;42.126;24.752;2022-11-06T13:46:09;99469.25;;;17.28;74.23
65175;BME280;51761;42.126;24.752;2022-11-06T13:57:30;99496.84;;;17.51;74.32
65175;BME280;51761;42.126;24.752;2022-11-06T14:08:27;99486.97;;;17.10;76.12
65175;BME280;51761;42.126;24.752;2022-11-06T14:13:25;99494.97;;;17.12;76.87
65175;BME280;51761;42.126;24.752;2022-11-06T14:15:59;99491.50;;;16.99;77.56
65175;BME280;51761;42.126;24.752;2022-11-06T14:18:25;99493.06;;;16.82;78.35
65175;BME280;51761;42.126;24.752;2022-11-06T14:24:16;99486.94;;;16.65;78.74
65175;BME280;51761;42.126;24.752;2022-11-06T14:26:51;99487.38;;;16.64;78.64
65175;BME280;51761;42.126;24.752;2022-11-06T14:34:33;99484.53;;;16.46;80.10
65175;BME280;51761;42.126;24.752;2022-11-06T14:50:40;99480.69;;;15.91;84.12
65175;BME280;51761;42.126;24.752;2022-11-06T14:53:30;99451.06;;;15.78;84.14
65175;BME280;51761;42.126;24.752;2022-11-06T14:56:08;99493.94;;;15.82;85.27
65175;BME280;51761;42.126;24.752;2022-11-06T14:58:38;99487.25;;;15.88;84.68
65175;BME280;51761;42.126;24.752;2022-11-06T15:03:48;99488.22;;;15.64;86.50
65175;BME280;51761;42.126;24.752;2022-11-06T15:16:42;99502.28;;;15.64;87.16
65175;BME280;51761;42.126;24.752;2022-11-06T15:19:40;99489.53;;;15.51;87.57
65175;BME280;51761;42.126;24.752;2022-11-06T15:27:34;99488.28;;;15.30;87.55
65175;BME280;51761;42.126;24.752;2022-11-06T15:30:04;99498.09;;;15.47;87.35
65175;BME280;51761;42.126;24.752;2022-11-06T15:32:37;99478.94;;;15.33;86.72
65175;BME280;51761;42.126;24.752;2022-11-06T15:37:42;99516.69;;;15.45;87.27
65175;BME280;51761;42.126;24.752;2022-11-06T15:40:34;99528.16;;;15.50;87.37
65175;BME280;51761;42.126;24.752;2022-11-06T15:43:06;99494.06;;;15.14;87.33
65175;BME280;51761;42.126;24.752;2022-11-06T15:45:33;99532.16;;;15.28;87.83
65175;BME280;51761;42.126;24.752;2022-11-06T15:48:01;99545.25;;;15.22;87.90
65175;BME280;51761;42.126;24.752;2022-11-06T15:50:33;99532.44;;;15.21;88.01
65175;BME280;51761;42.126;24.752;2022-11-06T15:55:41;99532.22;;;15.15;88.52